sensor_id;sensor_type;location;lat;lon;timestamp;P1;durP1;ratioP1;P2;durP2;ratioP2
56824;SDS011;42705;50.326;18.772;2022-11-20T00:02:55;170.70;;;65.03;;
56824;SDS011;42705;50.326;18.772;2022-11-20T00:08:16;149.90;;;60.43;;
56824;SDS011;42705;50.326;18.772;2022-11-20T00:13:37;159.47;;;62.87;;
56824;SDS011;42705;50.326;18.772;2022-11-20T00:18:58;155.27;;;62.88;;
56824;SDS011;42705;50.326;18.772;2022-11-20T00:24:20;155.12;;;62.20;;
56824;SDS011;42705;50.326;18.772;2022-11-20T00:29:41;176.18;;;68.20;;
56824;SDS011;42705;50.326;18.772;2022-11-20T00:35:03;183.95;;;71.65;;
56824;SDS011;42705;50.326;18.772;2022-11-20T00:45:46;183.85;;;72.85;;
56824;SDS011;42705;50.326;18.772;2022-11-20T00:51:08;203.10;;;78.23;;
56824;SDS011;42705;50.326;18.772;2022-11-20T00:56:30;217.70;;;82.90;;
56824;SDS011;42705;50.326;18.772;2022-11-20T01:01:51;197.80;;;75.45;;
56824;SDS011;42705;50.326;18.772;2022-11-20T01:07:12;164.22;;;66.22;;
56824;SDS011;42705;50.326;18.772;2022-11-20T01:12:33;190.53;;;73.95;;
56824;SDS011;42705;50.326;18.772;2022-11-20T01:17:54;177.07;;;71.00;;
56824;SDS011;42705;50.326;18.772;2022-11-20T01:23:15;174.93;;;71.13;;
56824;SDS011;42705;50.326;18.772;2022-11-20T01:28:36;198.57;;;77.00;;
56824;SDS011;42705;50.326;18.772;2022-11-20T01:34:00;208.17;;;78.37;;
56824;SDS011;42705;50.326;18.772;2022-11-20T01:39:24;209.50;;;80.00;;
56824;SDS011;42705;50.326;18.772;2022-11-20T01:55:48;151.10;;;60.20;;
56824;SDS011;42705;50.326;18.772;2022-11-20T02:01:12;149.42;;;63.23;;
56824;SDS011;42705;50.326;18.772;2022-11-20T02:06:50;167.65;;;67.30;;
56824;SDS011;42705;50.326;18.772;2022-11-20T02:12:23;158.05;;;65.45;;
56824;SDS011;42705;50.326;18.772;2022-11-20T02:17:46;177.20;;;69.35;;
56824;SDS011;42705;50.326;18.772;2022-11-20T02:23:23;165.62;;;66.00;;
56824;SDS011;42705;50.326;18.772;2022-11-20T02:29:26;164.45;;;66.87;;
56824;SDS011;42705;50.326;18.772;2022-11-20T02:40:46;193.70;;;72.85;;
56824;SDS011;42705;50.326;18.772;2022-11-20T02:46:07;192.22;;;72.30;;
56824;SDS011;42705;50.326;18.772;2022-11-20T02:51:30;195.80;;;74.67;;
56824;SDS011;42705;50.326;18.772;2022-11-20T03:02:13;191.12;;;73.95;;
56824;SDS011;42705;50.326;18.772;2022-11-20T03:07:35;155.67;;;67.47;;
56824;SDS011;42705;50.326;18.772;2022-11-20T03:12:56;169.68;;;67.45;;
56824;SDS011;42705;50.326;18.772;2022-11-20T03:18:17;160.35;;;63.73;;
56824;SDS011;42705;50.326;18.772;2022-11-20T03:23:38;163.12;;;63.65;;
56824;SDS011;42705;50.326;18.772;2022-11-20T03:29:02;151.53;;;62.20;;
56824;SDS011;42705;50.326;18.772;2022-11-20T03:34:25;136.92;;;59.98;;
56824;SDS011;42705;50.326;18.772;2022-11-20T03:39:46;147.43;;;59.35;;
56824;SDS011;42705;50.326;18.772;2022-11-20T03:45:07;155.95;;;64.07;;
56824;SDS011;42705;50.326;18.772;2022-11-20T03:50:29;164.80;;;63.68;;
56824;SDS011;42705;50.326;18.772;2022-11-20T03:55:50;159.93;;;63.52;;
56824;SDS011;42705;50.326;18.772;2022-11-20T04:01:16;153.30;;;60.12;;
56824;SDS011;42705;50.326;18.772;2022-11-20T04:06:43;146.02;;;58.58;;
56824;SDS011;42705;50.326;18.772;2022-11-20T04:12:04;143.62;;;61.05;;
56824;SDS011;42705;50.326;18.772;2022-11-20T04:17:26;148.02;;;61.00;;
56824;SDS011;42705;50.326;18.772;2022-11-20T04:22:47;150.87;;;59.90;;
56824;SDS011;42705;50.326;18.772;2022-11-20T04:28:08;136.45;;;55.90;;
56824;SDS011;42705;50.326;18.772;2022-11-20T04:33:29;144.23;;;60.93;;
56824;SDS011;42705;50.326;18.772;2022-11-20T04:38:50;143.33;;;58.53;;
56824;SDS011;42705;50.326;18.772;2022-11-20T04:44:13;137.32;;;58.33;;
56824;SDS011;42705;50.326;18.772;2022-11-20T04:49:34;136.52;;;59.60;;
56824;SDS011;42705;50.326;18.772;2022-11-20T04:54:55;137.28;;;59.73;;
56824;SDS011;42705;50.326;18.772;2022-11-20T05:00:16;139.97;;;55.10;;
56824;SDS011;42705;50.326;18.772;2022-11-20T05:05:38;130.18;;;54.45;;
56824;SDS011;42705;50.326;18.772;2022-11-20T05:11:02;126.30;;;55.08;;
56824;SDS011;42705;50.326;18.772;2022-11-20T05:16:28;130.37;;;54.58;;
56824;SDS011;42705;50.326;18.772;2022-11-20T05:21:49;122.72;;;53.28;;
56824;SDS011;42705;50.326;18.772;2022-11-20T05:27:10;134.35;;;54.42;;
56824;SDS011;42705;50.326;18.772;2022-11-20T05:32:31;125.70;;;55.15;;
56824;SDS011;42705;50.326;18.772;2022-11-20T05:37:52;123.97;;;56.92;;
56824;SDS011;42705;50.326;18.772;2022-11-20T05:43:13;130.97;;;53.33;;
56824;SDS011;42705;50.326;18.772;2022-11-20T05:48:34;132.70;;;56.00;;
56824;SDS011;42705;50.326;18.772;2022-11-20T05:53:57;126.27;;;53.27;;
56824;SDS011;42705;50.326;18.772;2022-11-20T05:59:19;131.87;;;54.65;;
56824;SDS011;42705;50.326;18.772;2022-11-20T06:04:40;129.82;;;55.73;;
56824;SDS011;42705;50.326;18.772;2022-11-20T06:10:01;133.82;;;56.05;;
56824;SDS011;42705;50.326;18.772;2022-11-20T06:15:22;132.97;;;58.10;;
56824;SDS011;42705;50.326;18.772;2022-11-20T06:20:44;131.75;;;57.25;;
56824;SDS011;42705;50.326;18.772;2022-11-20T06:26:07;139.23;;;59.20;;
56824;SDS011;42705;50.326;18.772;2022-11-20T06:31:31;130.15;;;54.10;;
56824;SDS011;42705;50.326;18.772;2022-11-20T06:36:54;124.72;;;56.02;;
56824;SDS011;42705;50.326;18.772;2022-11-20T06:42:15;127.55;;;53.00;;
56824;SDS011;42705;50.326;18.772;2022-11-20T06:47:36;126.97;;;55.03;;
56824;SDS011;42705;50.326;18.772;2022-11-20T06:52:59;129.17;;;57.00;;
56824;SDS011;42705;50.326;18.772;2022-11-20T06:58:25;130.63;;;58.05;;
56824;SDS011;42705;50.326;18.772;2022-11-20T07:03:48;124.30;;;56.83;;
56824;SDS011;42705;50.326;18.772;2022-11-20T07:09:11;135.22;;;58.10;;
56824;SDS011;42705;50.326;18.772;2022-11-20T07:14:32;136.60;;;60.15;;
56824;SDS011;42705;50.326;18.772;2022-11-20T07:19:53;124.15;;;58.17;;
56824;SDS011;42705;50.326;18.772;2022-11-20T07:25:14;125.77;;;57.23;;
56824;SDS011;42705;50.326;18.772;2022-11-20T07:30:35;128.17;;;55.87;;
56824;SDS011;42705;50.326;18.772;2022-11-20T07:35:58;132.23;;;59.83;;
56824;SDS011;42705;50.326;18.772;2022-11-20T07:41:20;127.23;;;57.03;;
56824;SDS011;42705;50.326;18.772;2022-11-20T07:46:41;135.85;;;58.42;;
56824;SDS011;42705;50.326;18.772;2022-11-20T07:52:02;145.53;;;62.43;;
56824;SDS011;42705;50.326;18.772;2022-11-20T07:57:23;151.87;;;65.17;;
56824;SDS011;42705;50.326;18.772;2022-11-20T08:02:44;156.97;;;68.50;;
56824;SDS011;42705;50.326;18.772;2022-11-20T08:08:05;180.10;;;75.57;;
56824;SDS011;42705;50.326;18.772;2022-11-20T08:13:27;173.37;;;68.80;;
56824;SDS011;42705;50.326;18.772;2022-11-20T08:19:07;203.25;;;82.35;;
56824;SDS011;42705;50.326;18.772;2022-11-20T08:24:28;187.95;;;77.25;;
56824;SDS011;42705;50.326;18.772;2022-11-20T08:29:49;187.15;;;80.03;;
56824;SDS011;42705;50.326;18.772;2022-11-20T08:35:10;176.42;;;74.82;;
56824;SDS011;42705;50.326;18.772;2022-11-20T08:40:31;165.67;;;72.67;;
56824;SDS011;42705;50.326;18.772;2022-11-20T08:45:55;136.97;;;59.00;;
56824;SDS011;42705;50.326;18.772;2022-11-20T08:51:17;101.42;;;46.28;;
56824;SDS011;42705;50.326;18.772;2022-11-20T08:56:39;100.22;;;47.03;;
56824;SDS011;42705;50.326;18.772;2022-11-20T09:02:00;93.50;;;42.65;;
56824;SDS011;42705;50.326;18.772;2022-11-20T09:07:21;91.37;;;42.87;;
56824;SDS011;42705;50.326;18.772;2022-11-20T09:12:43;86.08;;;38.30;;
56824;SDS011;42705;50.326;18.772;2022-11-20T09:18:05;98.33;;;44.83;;
56824;SDS011;42705;50.326;18.772;2022-11-20T09:23:26;89.10;;;41.75;;
56824;SDS011;42705;50.326;18.772;2022-11-20T09:28:54;95.30;;;42.60;;
56824;SDS011;42705;50.326;18.772;2022-11-20T09:34:17;109.07;;;48.80;;
56824;SDS011;42705;50.326;18.772;2022-11-20T09:39:38;108.20;;;49.50;;
56824;SDS011;42705;50.326;18.772;2022-11-20T09:56:40;94.15;;;46.37;;
56824;SDS011;42705;50.326;18.772;2022-11-20T10:08:19;98.80;;;46.75;;
56824;SDS011;42705;50.326;18.772;2022-11-20T10:25:18;96.22;;;45.03;;
56824;SDS011;42705;50.326;18.772;2022-11-20T10:30:41;88.78;;;41.70;;
56824;SDS011;42705;50.326;18.772;2022-11-20T10:36:09;61.00;;;27.35;;
56824;SDS011;42705;50.326;18.772;2022-11-20T10:41:46;80.42;;;38.08;;
56824;SDS011;42705;50.326;18.772;2022-11-20T10:47:14;77.25;;;36.23;;
56824;SDS011;42705;50.326;18.772;2022-11-20T10:52:48;60.35;;;29.57;;
56824;SDS011;42705;50.326;18.772;2022-11-20T10:58:40;61.98;;;28.30;;
56824;SDS011;42705;50.326;18.772;2022-11-20T11:10:14;69.60;;;32.10;;
56824;SDS011;42705;50.326;18.772;2022-11-20T11:15:50;65.52;;;29.15;;
56824;SDS011;42705;50.326;18.772;2022-11-20T11:21:12;57.38;;;27.55;;
56824;SDS011;42705;50.326;18.772;2022-11-20T11:26:34;66.65;;;31.82;;
56824;SDS011;42705;50.326;18.772;2022-11-20T11:32:05;62.55;;;29.60;;
56824;SDS011;42705;50.326;18.772;2022-11-20T11:37:33;63.42;;;28.05;;
56824;SDS011;42705;50.326;18.772;2022-11-20T11:43:00;60.03;;;29.75;;
56824;SDS011;42705;50.326;18.772;2022-11-20T11:48:26;65.52;;;34.65;;
56824;SDS011;42705;50.326;18.772;2022-11-20T11:53:47;63.98;;;35.73;;
56824;SDS011;42705;50.326;18.772;2022-11-20T11:59:09;65.28;;;36.85;;
56824;SDS011;42705;50.326;18.772;2022-11-20T12:04:46;67.67;;;36.50;;
56824;SDS011;42705;50.326;18.772;2022-11-20T12:10:19;56.13;;;33.58;;
56824;SDS011;42705;50.326;18.772;2022-11-20T12:16:00;66.00;;;39.20;;
56824;SDS011;42705;50.326;18.772;2022-11-20T12:51:06;63.17;;;37.65;;
56824;SDS011;42705;50.326;18.772;2022-11-20T12:56:37;62.85;;;37.90;;
56824;SDS011;42705;50.326;18.772;2022-11-20T13:08:13;67.32;;;39.90;;
56824;SDS011;42705;50.326;18.772;2022-11-20T13:19:21;73.47;;;42.55;;
56824;SDS011;42705;50.326;18.772;2022-11-20T13:24:49;78.17;;;43.02;;
56824;SDS011;42705;50.326;18.772;2022-11-20T13:30:14;77.35;;;42.80;;
56824;SDS011;42705;50.326;18.772;2022-11-20T13:35:42;83.03;;;42.08;;
56824;SDS011;42705;50.326;18.772;2022-11-20T13:41:06;81.15;;;40.88;;
56824;SDS011;42705;50.326;18.772;2022-11-20T13:46:47;68.87;;;34.92;;
56824;SDS011;42705;50.326;18.772;2022-11-20T14:03:49;72.45;;;34.95;;
56824;SDS011;42705;50.326;18.772;2022-11-20T14:09:12;87.27;;;41.77;;
56824;SDS011;42705;50.326;18.772;2022-11-20T14:14:50;71.90;;;35.63;;
56824;SDS011;42705;50.326;18.772;2022-11-20T14:20:14;76.50;;;35.55;;
56824;SDS011;42705;50.326;18.772;2022-11-20T14:25:35;68.22;;;31.07;;
56824;SDS011;42705;50.326;18.772;2022-11-20T14:30:57;59.35;;;26.93;;
56824;SDS011;42705;50.326;18.772;2022-11-20T14:36:20;47.75;;;21.15;;
56824;SDS011;42705;50.326;18.772;2022-11-20T14:41:49;49.73;;;21.75;;
56824;SDS011;42705;50.326;18.772;2022-11-20T14:47:15;41.35;;;19.27;;
56824;SDS011;42705;50.326;18.772;2022-11-20T14:52:53;46.53;;;20.88;;
56824;SDS011;42705;50.326;18.772;2022-11-20T14:58:25;42.60;;;18.98;;
56824;SDS011;42705;50.326;18.772;2022-11-20T15:03:45;47.15;;;20.65;;
56824;SDS011;42705;50.326;18.772;2022-11-20T15:09:12;48.55;;;22.95;;
56824;SDS011;42705;50.326;18.772;2022-11-20T15:14:35;46.68;;;21.80;;
56824;SDS011;42705;50.326;18.772;2022-11-20T15:19:57;51.08;;;22.77;;
56824;SDS011;42705;50.326;18.772;2022-11-20T15:25:19;55.05;;;22.13;;
56824;SDS011;42705;50.326;18.772;2022-11-20T15:30:40;48.50;;;23.55;;
56824;SDS011;42705;50.326;18.772;2022-11-20T15:36:02;61.37;;;25.48;;
56824;SDS011;42705;50.326;18.772;2022-11-20T15:41:23;59.40;;;27.13;;
56824;SDS011;42705;50.326;18.772;2022-11-20T15:46:45;60.78;;;26.05;;
56824;SDS011;42705;50.326;18.772;2022-11-20T15:52:08;61.40;;;25.92;;
56824;SDS011;42705;50.326;18.772;2022-11-20T15:57:30;60.67;;;23.98;;
56824;SDS011;42705;50.326;18.772;2022-11-20T16:02:51;63.30;;;26.77;;
56824;SDS011;42705;50.326;18.772;2022-11-20T16:08:14;56.02;;;25.20;;
56824;SDS011;42705;50.326;18.772;2022-11-20T16:13:36;56.25;;;23.60;;
56824;SDS011;42705;50.326;18.772;2022-11-20T16:19:16;51.73;;;23.20;;
56824;SDS011;42705;50.326;18.772;2022-11-20T16:24:38;44.30;;;20.35;;
56824;SDS011;42705;50.326;18.772;2022-11-20T16:29:59;50.43;;;22.42;;
56824;SDS011;42705;50.326;18.772;2022-11-20T16:35:20;48.25;;;21.25;;
56824;SDS011;42705;50.326;18.772;2022-11-20T16:40:41;38.58;;;17.75;;
56824;SDS011;42705;50.326;18.772;2022-11-20T16:46:03;48.80;;;21.83;;
56824;SDS011;42705;50.326;18.772;2022-11-20T16:51:25;48.67;;;21.67;;
56824;SDS011;42705;50.326;18.772;2022-11-20T16:56:48;48.63;;;21.50;;
56824;SDS011;42705;50.326;18.772;2022-11-20T17:02:11;57.83;;;23.62;;
56824;SDS011;42705;50.326;18.772;2022-11-20T17:07:32;57.23;;;25.12;;
56824;SDS011;42705;50.326;18.772;2022-11-20T17:12:53;55.80;;;24.30;;
56824;SDS011;42705;50.326;18.772;2022-11-20T17:18:14;60.33;;;26.17;;
56824;SDS011;42705;50.326;18.772;2022-11-20T17:23:36;59.07;;;26.30;;
56824;SDS011;42705;50.326;18.772;2022-11-20T17:29:00;82.20;;;35.43;;
56824;SDS011;42705;50.326;18.772;2022-11-20T17:34:29;79.22;;;34.90;;
56824;SDS011;42705;50.326;18.772;2022-11-20T17:39:50;79.53;;;37.48;;
56824;SDS011;42705;50.326;18.772;2022-11-20T17:45:11;76.60;;;34.13;;
56824;SDS011;42705;50.326;18.772;2022-11-20T17:50:32;85.10;;;35.67;;
56824;SDS011;42705;50.326;18.772;2022-11-20T17:55:54;75.37;;;34.73;;
56824;SDS011;42705;50.326;18.772;2022-11-20T18:01:35;74.82;;;33.92;;
56824;SDS011;42705;50.326;18.772;2022-11-20T18:06:56;77.05;;;36.58;;
56824;SDS011;42705;50.326;18.772;2022-11-20T18:12:17;95.38;;;42.58;;
56824;SDS011;42705;50.326;18.772;2022-11-20T18:17:39;86.37;;;38.88;;
56824;SDS011;42705;50.326;18.772;2022-11-20T18:23:03;92.90;;;41.18;;
56824;SDS011;42705;50.326;18.772;2022-11-20T18:28:24;86.85;;;40.45;;
56824;SDS011;42705;50.326;18.772;2022-11-20T18:33:45;88.45;;;38.50;;
56824;SDS011;42705;50.326;18.772;2022-11-20T18:39:08;83.60;;;35.15;;
56824;SDS011;42705;50.326;18.772;2022-11-20T18:44:31;79.42;;;33.65;;
56824;SDS011;42705;50.326;18.772;2022-11-20T18:50:13;85.90;;;36.20;;
56824;SDS011;42705;50.326;18.772;2022-11-20T18:55:35;82.10;;;36.38;;
56824;SDS011;42705;50.326;18.772;2022-11-20T19:01:08;87.43;;;39.90;;
56824;SDS011;42705;50.326;18.772;2022-11-20T19:06:27;87.35;;;38.48;;
56824;SDS011;42705;50.326;18.772;2022-11-20T19:11:49;79.82;;;36.68;;
56824;SDS011;42705;50.326;18.772;2022-11-20T19:17:10;85.10;;;35.55;;
56824;SDS011;42705;50.326;18.772;2022-11-20T19:22:34;87.15;;;36.15;;
56824;SDS011;42705;50.326;18.772;2022-11-20T19:27:55;82.02;;;36.63;;
56824;SDS011;42705;50.326;18.772;2022-11-20T19:33:16;85.67;;;34.18;;
56824;SDS011;42705;50.326;18.772;2022-11-20T19:38:39;101.03;;;40.37;;
56824;SDS011;42705;50.326;18.772;2022-11-20T19:44:03;89.67;;;39.50;;
56824;SDS011;42705;50.326;18.772;2022-11-20T19:49:31;83.00;;;33.10;;
56824;SDS011;42705;50.326;18.772;2022-11-20T19:54:52;75.57;;;34.00;;
56824;SDS011;42705;50.326;18.772;2022-11-20T20:00:14;73.23;;;30.73;;
56824;SDS011;42705;50.326;18.772;2022-11-20T20:05:36;71.07;;;30.82;;
56824;SDS011;42705;50.326;18.772;2022-11-20T20:16:34;62.13;;;28.32;;
56824;SDS011;42705;50.326;18.772;2022-11-20T20:21:55;59.88;;;26.33;;
56824;SDS011;42705;50.326;18.772;2022-11-20T20:27:17;55.80;;;25.97;;
56824;SDS011;42705;50.326;18.772;2022-11-20T20:32:38;65.75;;;28.32;;
56824;SDS011;42705;50.326;18.772;2022-11-20T20:38:02;63.15;;;28.40;;
56824;SDS011;42705;50.326;18.772;2022-11-20T20:43:23;58.38;;;26.37;;
56824;SDS011;42705;50.326;18.772;2022-11-20T20:48:44;61.70;;;28.25;;
56824;SDS011;42705;50.326;18.772;2022-11-20T20:54:05;63.87;;;29.05;;
56824;SDS011;42705;50.326;18.772;2022-11-20T20:59:26;63.40;;;27.67;;
56824;SDS011;42705;50.326;18.772;2022-11-20T21:04:48;62.70;;;28.15;;
56824;SDS011;42705;50.326;18.772;2022-11-20T21:10:11;67.40;;;26.95;;
56824;SDS011;42705;50.326;18.772;2022-11-20T21:15:32;68.60;;;27.65;;
56824;SDS011;42705;50.326;18.772;2022-11-20T21:20:54;71.25;;;29.05;;
56824;SDS011;42705;50.326;18.772;2022-11-20T21:26:34;64.67;;;27.45;;
56824;SDS011;42705;50.326;18.772;2022-11-20T21:31:55;81.10;;;32.58;;
56824;SDS011;42705;50.326;18.772;2022-11-20T21:37:18;59.73;;;26.45;;
56824;SDS011;42705;50.326;18.772;2022-11-20T21:42:39;55.40;;;24.43;;
56824;SDS011;42705;50.326;18.772;2022-11-20T21:48:00;53.95;;;22.80;;
56824;SDS011;42705;50.326;18.772;2022-11-20T21:53:21;53.20;;;23.27;;
56824;SDS011;42705;50.326;18.772;2022-11-20T21:58:42;56.03;;;24.90;;
56824;SDS011;42705;50.326;18.772;2022-11-20T22:04:04;57.70;;;24.52;;
56824;SDS011;42705;50.326;18.772;2022-11-20T22:09:27;53.13;;;24.57;;
56824;SDS011;42705;50.326;18.772;2022-11-20T22:14:49;59.18;;;25.50;;
56824;SDS011;42705;50.326;18.772;2022-11-20T22:20:10;60.47;;;26.47;;
56824;SDS011;42705;50.326;18.772;2022-11-20T22:25:31;66.28;;;28.40;;
56824;SDS011;42705;50.326;18.772;2022-11-20T22:30:58;65.65;;;29.40;;
56824;SDS011;42705;50.326;18.772;2022-11-20T22:36:21;77.58;;;31.30;;
56824;SDS011;42705;50.326;18.772;2022-11-20T22:41:44;83.67;;;33.53;;
56824;SDS011;42705;50.326;18.772;2022-11-20T22:47:06;67.10;;;28.75;;
56824;SDS011;42705;50.326;18.772;2022-11-20T22:52:26;66.20;;;28.73;;
56824;SDS011;42705;50.326;18.772;2022-11-20T22:57:47;58.13;;;25.88;;
56824;SDS011;42705;50.326;18.772;2022-11-20T23:03:08;52.37;;;23.47;;
56824;SDS011;42705;50.326;18.772;2022-11-20T23:08:29;50.60;;;23.67;;
56824;SDS011;42705;50.326;18.772;2022-11-20T23:13:52;56.58;;;23.98;;
56824;SDS011;42705;50.326;18.772;2022-11-20T23:19:17;56.55;;;25.40;;
56824;SDS011;42705;50.326;18.772;2022-11-20T23:24:38;54.38;;;23.70;;
56824;SDS011;42705;50.326;18.772;2022-11-20T23:29:59;51.73;;;23.85;;
56824;SDS011;42705;50.326;18.772;2022-11-20T23:35:20;65.07;;;27.20;;
56824;SDS011;42705;50.326;18.772;2022-11-20T23:40:45;57.30;;;26.70;;
56824;SDS011;42705;50.326;18.772;2022-11-20T23:46:08;61.30;;;27.00;;
56824;SDS011;42705;50.326;18.772;2022-11-20T23:51:29;83.87;;;32.40;;
56824;SDS011;42705;50.326;18.772;2022-11-20T23:56:50;66.50;;;30.37;;
